createdAt,value
2023-05-09T00:01:51.172Z,92279.66
2023-05-09T00:04:23.705Z,92271.63
2023-05-09T00:06:56.728Z,92274.22
2023-05-09T00:09:29.046Z,92268.03
2023-05-09T00:12:01.878Z,92273.06
2023-05-09T00:14:34.279Z,92272.41
2023-05-09T00:17:06.998Z,92267.78
2023-05-09T00:19:39.579Z,92270.47
2023-05-09T00:22:12.828Z,92270.59
2023-05-09T00:24:45.199Z,92266.63
2023-05-09T00:27:17.816Z,92262.19
2023-05-09T00:29:50.123Z,92257.94
2023-05-09T00:32:22.626Z,92260.38
2023-05-09T00:34:55.069Z,92253.19
2023-05-09T00:37:29.895Z,92254.53
2023-05-09T00:40:03.175Z,92251.56
2023-05-09T00:42:36.074Z,92257.94
2023-05-09T00:45:09.534Z,92258.78
2023-05-09T00:47:42.491Z,92265.06
2023-05-09T00:50:14.895Z,92254.63
2023-05-09T00:52:47.893Z,92262.94
2023-05-09T00:55:20.371Z,92261.03
2023-05-09T00:57:52.758Z,92259.47
2023-05-09T01:00:25.182Z,92259.28
2023-05-09T01:02:58.340Z,92267.31
2023-05-09T01:05:38.148Z,92262.56
2023-05-09T01:08:17.371Z,92271.41
2023-05-09T01:11:03.341Z,92258.69
2023-05-09T01:13:44.190Z,92261.94
2023-05-09T01:16:25.386Z,92254.81
2023-05-09T01:19:06.414Z,92254.00
2023-05-09T01:21:43.381Z,92252.47
2023-05-09T01:24:52.047Z,92252.69
2023-05-09T01:27:38.894Z,92247.94
2023-05-09T01:30:13.204Z,92250.09
2023-05-09T01:32:49.386Z,92246.31
2023-05-09T01:35:25.605Z,92236.94
2023-05-09T01:37:59.106Z,92241.00
2023-05-09T01:40:33.061Z,92250.47
2023-05-09T01:43:09.528Z,92245.25
2023-05-09T01:45:44.135Z,92242.25
2023-05-09T01:48:17.187Z,92240.13
2023-05-09T01:50:49.823Z,92247.66
2023-05-09T01:53:23.974Z,92242.72
2023-05-09T01:55:57.282Z,92245.84
2023-05-09T01:58:32.024Z,92237.91
2023-05-09T02:01:05.746Z,92238.66
2023-05-09T02:03:39.667Z,92236.56
2023-05-09T02:06:12.583Z,92237.22
2023-05-09T02:08:45.587Z,92246.09
2023-05-09T02:11:17.986Z,92245.22
2023-05-09T02:13:50.416Z,92252.03
2023-05-09T02:16:23.447Z,92243.84
2023-05-09T02:18:55.735Z,92245.84
2023-05-09T02:21:29.188Z,92244.03
2023-05-09T02:24:01.986Z,92244.59
2023-05-09T02:26:35.587Z,92252.22
2023-05-09T02:29:10.468Z,92249.47
2023-05-09T02:31:46.171Z,92249.28
2023-05-09T02:34:19.409Z,92246.69
2023-05-09T02:36:51.887Z,92247.94
2023-05-09T02:39:24.353Z,92246.97
2023-05-09T02:41:56.694Z,92246.13
2023-05-09T02:44:30.799Z,92245.63
2023-05-09T02:47:04.694Z,92249.56
2023-05-09T02:49:36.975Z,92257.38
2023-05-09T02:52:10.854Z,92254.78
2023-05-09T02:54:43.337Z,92248.28
2023-05-09T02:57:15.748Z,92258.63
2023-05-09T02:59:48.072Z,92258.84
2023-05-09T03:02:22.574Z,92258.84
2023-05-09T03:04:55.915Z,92262.50
2023-05-09T03:07:28.669Z,92261.09
2023-05-09T03:10:01.894Z,92260.97
2023-05-09T03:12:35.449Z,92260.09
2023-05-09T03:15:08.912Z,92267.44
2023-05-09T03:17:46.425Z,92272.44
2023-05-09T03:20:18.941Z,92273.00
2023-05-09T03:22:51.204Z,92273.50
2023-05-09T03:25:25.471Z,92271.75
2023-05-09T03:27:57.749Z,92271.59
2023-05-09T03:30:30.162Z,92275.59
2023-05-09T03:33:05.522Z,92274.88
2023-05-09T03:35:37.873Z,92287.69
2023-05-09T03:38:10.662Z,92284.28
2023-05-09T03:40:43.156Z,92284.16
2023-05-09T03:43:18.414Z,92281.00
2023-05-09T03:45:50.765Z,92283.81
2023-05-09T03:48:24.175Z,92288.94
2023-05-09T03:50:57.383Z,92286.69
2023-05-09T03:53:32.618Z,92287.75
2023-05-09T03:56:05.815Z,92291.97
2023-05-09T03:58:43.073Z,92288.09
2023-05-09T04:01:17.065Z,92279.53
2023-05-09T04:03:51.725Z,92292.28
2023-05-09T04:06:25.569Z,92291.41
2023-05-09T04:08:58.029Z,92299.91
2023-05-09T04:11:30.726Z,92299.38
2023-05-09T04:14:06.404Z,92303.94
2023-05-09T04:16:42.217Z,92304.44
2023-05-09T04:19:15.602Z,92301.75
2023-05-09T04:21:47.933Z,92302.59
2023-05-09T04:24:20.368Z,92306.09
2023-05-09T04:26:54.055Z,92296.88
2023-05-09T04:29:29.106Z,92294.75
2023-05-09T04:32:02.510Z,92296.31
2023-05-09T04:34:35.626Z,92291.38
2023-05-09T04:37:14.077Z,92299.50
2023-05-09T04:39:47.159Z,92302.66
2023-05-09T04:42:25.733Z,92297.91
2023-05-09T04:44:58.026Z,92293.91
2023-05-09T04:47:30.769Z,92292.34
2023-05-09T04:50:04.130Z,92293.19
2023-05-09T04:52:36.493Z,92301.41
2023-05-09T04:55:10.302Z,92299.00
2023-05-09T04:57:47.061Z,92300.66
2023-05-09T05:00:20.584Z,92298.03
2023-05-09T05:02:54.644Z,92300.84
2023-05-09T05:05:30.699Z,92293.50
2023-05-09T05:08:04.336Z,92293.81
2023-05-09T05:10:40.861Z,92291.50
2023-05-09T05:13:16.473Z,92293.53
2023-05-09T05:15:51.836Z,92292.78
2023-05-09T05:18:26.363Z,92290.34
2023-05-09T05:21:00.201Z,92290.00
2023-05-09T05:23:32.950Z,92295.78
2023-05-09T05:26:05.392Z,92298.28
2023-05-09T05:28:40.557Z,92308.06
2023-05-09T05:31:12.939Z,92304.91
2023-05-09T05:33:45.269Z,92298.72
2023-05-09T05:36:18.464Z,92304.03
2023-05-09T05:38:51.300Z,92301.03
2023-05-09T05:41:23.622Z,92294.56
2023-05-09T05:43:56.595Z,92303.84
2023-05-09T05:46:28.881Z,92305.56
2023-05-09T05:49:02.003Z,92305.66
2023-05-09T05:51:35.451Z,92310.00
2023-05-09T05:54:08.973Z,92301.94
2023-05-09T05:56:42.392Z,92310.84
2023-05-09T05:59:15.668Z,92310.06
2023-05-09T06:01:48.094Z,92301.91
2023-05-09T06:04:21.001Z,92306.06
2023-05-09T06:06:54.018Z,92306.09
2023-05-09T06:09:26.338Z,92312.16
2023-05-09T06:11:58.732Z,92303.81
2023-05-09T06:14:31.293Z,92304.91
2023-05-09T06:17:03.832Z,92307.91
2023-05-09T06:19:36.791Z,92311.78
2023-05-09T06:22:09.834Z,92317.28
2023-05-09T06:24:42.144Z,92308.22
2023-05-09T06:27:14.490Z,92305.00
2023-05-09T06:29:46.825Z,92310.78
2023-05-09T06:32:19.155Z,92316.06
2023-05-09T06:34:52.009Z,92307.94
2023-05-09T06:37:25.679Z,92311.25
2023-05-09T06:39:57.964Z,92311.69
2023-05-09T06:42:31.968Z,92311.75
2023-05-09T06:45:05.237Z,92305.72
2023-05-09T06:47:37.684Z,92312.16
2023-05-09T06:50:10.245Z,92306.84
2023-05-09T06:52:43.522Z,92309.50
2023-05-09T06:55:16.240Z,92306.94
2023-05-09T06:57:48.772Z,92301.53
2023-05-09T07:00:22.164Z,92308.56
2023-05-09T07:02:54.487Z,92303.19
2023-05-09T07:05:27.071Z,92308.69
2023-05-09T07:08:00.154Z,92308.00
2023-05-09T07:10:32.748Z,92292.13
2023-05-09T07:13:05.140Z,92297.31
2023-05-09T07:15:41.794Z,92308.06
2023-05-09T07:18:15.123Z,92309.94
2023-05-09T07:20:47.471Z,92313.63
2023-05-09T07:23:20.457Z,92316.94
2023-05-09T07:25:57.138Z,92318.91
2023-05-09T07:28:29.461Z,92313.38
2023-05-09T07:31:02.643Z,92308.81
2023-05-09T07:33:35.034Z,92315.19
2023-05-09T07:36:07.458Z,92307.31
2023-05-09T07:38:40.454Z,92314.84
2023-05-09T07:41:12.778Z,92314.50
2023-05-09T07:43:45.121Z,92304.63
2023-05-09T07:46:17.534Z,92307.38
2023-05-09T07:48:49.841Z,92313.09
2023-05-09T07:51:22.109Z,92305.00
2023-05-09T07:53:55.812Z,92299.72
2023-05-09T07:56:28.103Z,92303.56
2023-05-09T07:59:00.892Z,92295.16
2023-05-09T08:01:33.242Z,92289.59
2023-05-09T08:04:08.302Z,92286.38
2023-05-09T08:06:40.720Z,92293.94
2023-05-09T08:09:13.672Z,92289.66
2023-05-09T08:11:46.124Z,92290.41
2023-05-09T08:14:18.404Z,92296.13
2023-05-09T08:16:50.710Z,92284.09
2023-05-09T08:19:25.354Z,92282.50
2023-05-09T08:21:57.697Z,92287.50
2023-05-09T08:24:31.362Z,92280.75
2023-05-09T08:27:03.782Z,92291.13
2023-05-09T08:29:36.074Z,92288.34
2023-05-09T08:32:08.558Z,92288.53
2023-05-09T08:34:40.852Z,92284.81
2023-05-09T08:37:15.237Z,92277.25
2023-05-09T08:39:48.592Z,92286.16
2023-05-09T08:42:23.954Z,92286.78
2023-05-09T08:44:58.773Z,92282.66
2023-05-09T08:47:34.473Z,92281.09
2023-05-09T08:50:08.397Z,92280.16
2023-05-09T08:52:41.134Z,92281.75
2023-05-09T08:55:14.476Z,92283.88
2023-05-09T08:57:47.137Z,92282.78
2023-05-09T09:00:20.877Z,92290.66
2023-05-09T09:02:53.862Z,92277.72
2023-05-09T09:05:40.739Z,92281.72
2023-05-09T09:08:14.839Z,92291.13
2023-05-09T09:10:47.813Z,92293.38
2023-05-09T09:13:20.659Z,92283.88
2023-05-09T09:15:54.345Z,92282.44
2023-05-09T09:18:30.064Z,92269.28
2023-05-09T09:21:06.669Z,92269.53
2023-05-09T09:23:42.292Z,92274.38
2023-05-09T09:26:15.724Z,92284.38
2023-05-09T09:28:48.134Z,92280.69
2023-05-09T09:31:21.874Z,92280.41
2023-05-09T09:33:59.983Z,92278.31
2023-05-09T09:36:32.891Z,92286.19
2023-05-09T09:39:05.322Z,92297.63
2023-05-09T09:41:39.444Z,92290.34
2023-05-09T09:44:15.592Z,92297.91
2023-05-09T09:46:49.909Z,92280.69
2023-05-09T09:49:23.744Z,92289.38
2023-05-09T09:51:57.499Z,92293.59
2023-05-09T09:54:31.872Z,92306.03
2023-05-09T09:57:04.849Z,92303.16
2023-05-09T09:59:37.222Z,92303.63
2023-05-09T10:02:11.605Z,92297.22
2023-05-09T10:04:43.856Z,92290.56
2023-05-09T10:07:19.818Z,92295.16
2023-05-09T10:09:52.075Z,92306.06
2023-05-09T10:12:25.185Z,92292.97
2023-05-09T10:14:57.637Z,92285.88
2023-05-09T10:17:31.966Z,92293.03
2023-05-09T10:20:06.212Z,92288.88
2023-05-09T10:22:40.105Z,92289.16
2023-05-09T10:25:19.218Z,92292.59
2023-05-09T10:27:56.174Z,92284.81
2023-05-09T10:30:33.965Z,92282.84
2023-05-09T10:33:12.835Z,92279.75
2023-05-09T10:35:47.055Z,92274.38
2023-05-09T10:38:19.427Z,92273.53
2023-05-09T10:40:54.028Z,92280.06
2023-05-09T10:43:28.047Z,92287.66
2023-05-09T10:46:01.526Z,92275.38
2023-05-09T10:48:34.320Z,92271.31
2023-05-09T10:51:07.669Z,92277.44
2023-05-09T10:53:42.785Z,92262.03
2023-05-09T10:56:26.269Z,92261.16
2023-05-09T10:58:59.874Z,92262.75
2023-05-09T11:01:36.158Z,92252.88
2023-05-09T11:04:10.383Z,92240.47
2023-05-09T11:06:46.900Z,92246.19
2023-05-09T11:09:24.424Z,92256.28
2023-05-09T11:11:58.163Z,92255.59
2023-05-09T11:14:32.389Z,92249.72
2023-05-09T11:17:06.260Z,92241.69
2023-05-09T11:19:57.487Z,92242.44
2023-05-09T11:22:31.925Z,92242.34
2023-05-09T11:25:06.610Z,92244.88
2023-05-09T11:27:42.652Z,92224.13
2023-05-09T11:30:17.049Z,92233.00
2023-05-09T11:32:51.785Z,92231.25
2023-05-09T11:35:26.136Z,92230.34
2023-05-09T11:38:01.053Z,92230.38
2023-05-09T11:40:34.568Z,92228.81
2023-05-09T11:43:08.084Z,92230.66
2023-05-09T11:45:41.390Z,92230.22
2023-05-09T11:48:13.701Z,92243.47
2023-05-09T11:50:47.098Z,92239.28
2023-05-09T11:53:19.503Z,92238.16
2023-05-09T11:55:51.853Z,92228.03
2023-05-09T11:58:24.220Z,92235.19
2023-05-09T12:00:57.524Z,92241.34
2023-05-09T12:03:30.275Z,92241.25
2023-05-09T12:06:02.802Z,92230.59
2023-05-09T12:08:35.960Z,92235.81
2023-05-09T12:11:09.342Z,92244.16
2023-05-09T12:13:46.565Z,92245.41
2023-05-09T12:16:20.449Z,92236.09
2023-05-09T12:18:53.619Z,92234.91
2023-05-09T12:21:25.940Z,92234.78
2023-05-09T12:23:58.879Z,92229.75
2023-05-09T12:26:31.626Z,92232.09
2023-05-09T12:29:04.245Z,92229.16
2023-05-09T12:31:37.308Z,92235.47
2023-05-09T12:34:10.149Z,92229.78
2023-05-09T12:36:49.904Z,92226.72
2023-05-09T12:39:22.353Z,92218.06
2023-05-09T12:42:01.697Z,92220.66
2023-05-09T12:44:34.618Z,92212.81
2023-05-09T12:47:07.861Z,92213.06
2023-05-09T12:49:40.361Z,92206.47
2023-05-09T12:52:18.875Z,92202.59
2023-05-09T12:54:52.315Z,92195.84
2023-05-09T12:57:27.090Z,92190.84
2023-05-09T13:00:01.804Z,92190.34
2023-05-09T13:02:36.861Z,92173.56
2023-05-09T13:05:11.251Z,92187.59
2023-05-09T13:07:45.085Z,92180.88
2023-05-09T13:10:20.743Z,92171.34
2023-05-09T13:12:53.090Z,92178.25
2023-05-09T13:15:26.076Z,92176.19
2023-05-09T13:17:59.162Z,92175.97
2023-05-09T13:20:31.634Z,92167.31
2023-05-09T13:23:04.252Z,92167.81
2023-05-09T13:25:36.576Z,92172.59
2023-05-09T13:28:08.893Z,92165.50
2023-05-09T13:30:41.413Z,92173.25
2023-05-09T13:33:25.066Z,92174.47
2023-05-09T13:35:57.851Z,92167.13
2023-05-09T13:38:31.434Z,92162.88
2023-05-09T13:41:03.922Z,92166.47
2023-05-09T13:43:36.693Z,92162.75
2023-05-09T13:46:09.055Z,92168.75
2023-05-09T13:48:42.105Z,92165.97
2023-05-09T13:51:14.437Z,92175.81
2023-05-09T13:53:46.957Z,92175.00
2023-05-09T13:56:19.252Z,92172.06
2023-05-09T13:58:51.598Z,92181.31
2023-05-09T14:01:24.125Z,92168.69
2023-05-09T14:03:57.164Z,92176.81
2023-05-09T14:06:29.562Z,92171.06
2023-05-09T14:09:03.320Z,92168.75
2023-05-09T14:11:35.793Z,92165.59
2023-05-09T14:14:08.208Z,92162.66
2023-05-09T14:16:40.462Z,92166.06
2023-05-09T14:19:14.510Z,92165.09
2023-05-09T14:21:46.963Z,92174.59
2023-05-09T14:24:19.273Z,92175.09
2023-05-09T14:26:51.751Z,92179.03
2023-05-09T14:29:24.052Z,92174.53
2023-05-09T14:31:56.443Z,92180.03
2023-05-09T14:34:29.446Z,92179.59
2023-05-09T14:37:01.981Z,92160.81
2023-05-09T14:39:34.223Z,92166.63
2023-05-09T14:42:09.329Z,92170.50
2023-05-09T14:44:42.095Z,92170.09
2023-05-09T14:47:16.139Z,92171.50
2023-05-09T14:49:49.158Z,92168.75
2023-05-09T14:52:21.432Z,92174.31
2023-05-09T14:54:53.693Z,92175.88
2023-05-09T14:57:26.064Z,92171.84
2023-05-09T15:00:03.180Z,92182.16
2023-05-09T15:02:41.775Z,92172.78
2023-05-09T15:05:15.992Z,92176.00
2023-05-09T15:07:48.269Z,92176.28
2023-05-09T15:10:20.666Z,92188.28
2023-05-09T15:12:53.028Z,92168.63
2023-05-09T15:15:26.256Z,92187.06
2023-05-09T15:17:58.567Z,92192.94
2023-05-09T15:20:31.640Z,92190.00
2023-05-09T15:23:05.890Z,92198.59
2023-05-09T15:25:43.818Z,92194.28
2023-05-09T15:28:16.078Z,92192.72
2023-05-09T15:30:48.374Z,92197.34
2023-05-09T15:33:20.761Z,92189.41
2023-05-09T15:35:57.152Z,92190.97
2023-05-09T15:38:29.428Z,92193.19
2023-05-09T15:41:02.344Z,92195.13
2023-05-09T15:43:34.618Z,92190.69
2023-05-09T15:46:07.108Z,92196.31
2023-05-09T15:48:39.433Z,92196.13
2023-05-09T15:51:13.121Z,92197.00
2023-05-09T15:53:45.465Z,92194.41
2023-05-09T15:56:17.784Z,92200.59
2023-05-09T15:58:50.102Z,92197.66
2023-05-09T16:01:22.487Z,92186.88
2023-05-09T16:03:55.259Z,92196.06
2023-05-09T16:06:28.648Z,92200.31
2023-05-09T16:09:01.636Z,92200.00
2023-05-09T16:11:33.991Z,92200.63
2023-05-09T16:14:08.636Z,92197.81
2023-05-09T16:16:42.105Z,92205.06
2023-05-09T16:19:14.471Z,92197.75
2023-05-09T16:21:47.783Z,92205.38
2023-05-09T16:24:20.128Z,92203.34
2023-05-09T16:26:52.414Z,92210.97
2023-05-09T16:29:24.757Z,92215.59
2023-05-09T16:31:57.515Z,92216.25
2023-05-09T16:34:29.851Z,92215.22
2023-05-09T16:37:03.098Z,92222.03
2023-05-09T16:39:35.422Z,92222.13
2023-05-09T16:42:07.777Z,92218.84
2023-05-09T16:44:40.066Z,92227.41
2023-05-09T16:47:12.352Z,92229.81
2023-05-09T16:49:44.595Z,92222.69
2023-05-09T16:52:17.587Z,92234.72
2023-05-09T16:54:50.054Z,92227.31
2023-05-09T16:57:22.288Z,92234.28
2023-05-09T16:59:54.989Z,92234.72
2023-05-09T17:02:27.337Z,92242.59
2023-05-09T17:04:59.724Z,92239.72
2023-05-09T17:07:32.881Z,92242.22
2023-05-09T17:10:06.067Z,92244.94
2023-05-09T17:12:38.787Z,92239.00
2023-05-09T17:15:11.479Z,92242.13
2023-05-09T17:17:43.830Z,92246.00
2023-05-09T17:20:16.286Z,92247.34
2023-05-09T17:22:49.460Z,92246.09
2023-05-09T17:25:22.302Z,92254.31
2023-05-09T17:27:54.613Z,92246.03
2023-05-09T17:30:26.965Z,92249.47
2023-05-09T17:32:59.387Z,92253.25
2023-05-09T17:35:31.747Z,92250.94
2023-05-09T17:38:04.778Z,92252.78
2023-05-09T17:40:37.439Z,92257.09
2023-05-09T17:43:09.790Z,92253.97
2023-05-09T17:45:42.151Z,92260.09
2023-05-09T17:48:15.228Z,92258.50
2023-05-09T17:50:47.612Z,92260.59
2023-05-09T17:53:21.000Z,92256.22
2023-05-09T17:55:53.293Z,92265.53
2023-05-09T17:58:27.003Z,92261.38
2023-05-09T18:00:59.398Z,92265.09
2023-05-09T18:03:31.846Z,92262.84
2023-05-09T18:06:04.367Z,92271.00
2023-05-09T18:08:37.392Z,92272.84
2023-05-09T18:11:09.965Z,92271.56
2023-05-09T18:13:42.308Z,92273.81
2023-05-09T18:16:14.640Z,92271.66
2023-05-09T18:18:47.047Z,92274.38
2023-05-09T18:21:19.692Z,92273.03
2023-05-09T18:23:53.448Z,92275.22
2023-05-09T18:26:28.079Z,92283.25
2023-05-09T18:29:00.386Z,92274.50
2023-05-09T18:31:37.876Z,92281.81
2023-05-09T18:34:10.483Z,92286.03
2023-05-09T18:36:42.790Z,92292.91
2023-05-09T18:39:15.715Z,92288.81
2023-05-09T18:41:47.959Z,92282.63
2023-05-09T18:44:20.230Z,92283.97
2023-05-09T18:46:53.185Z,92288.66
2023-05-09T18:49:26.104Z,92289.72
2023-05-09T18:51:59.374Z,92284.22
2023-05-09T18:54:32.406Z,92287.75
2023-05-09T18:57:04.729Z,92291.44
2023-05-09T18:59:37.016Z,92293.47
2023-05-09T19:02:09.372Z,92287.47
2023-05-09T19:04:41.877Z,92294.84
2023-05-09T19:07:14.359Z,92288.56
2023-05-09T19:09:47.376Z,92289.84
2023-05-09T19:12:19.734Z,92300.88
2023-05-09T19:14:52.215Z,92294.44
2023-05-09T19:17:24.523Z,92297.00
2023-05-09T19:19:56.832Z,92302.41
2023-05-09T19:22:29.160Z,92295.94
2023-05-09T19:25:02.748Z,92304.41
2023-05-09T19:27:35.030Z,92303.91
2023-05-09T19:30:08.533Z,92301.31
2023-05-09T19:32:41.109Z,92298.94
2023-05-09T19:35:13.522Z,92296.53
2023-05-09T19:37:45.863Z,92298.09
2023-05-09T19:40:19.024Z,92299.38
2023-05-09T19:42:51.312Z,92299.69
2023-05-09T19:45:23.642Z,92297.69
2023-05-09T19:47:55.991Z,92305.63
2023-05-09T19:50:28.384Z,92287.63
2023-05-09T19:53:00.838Z,92292.81
2023-05-09T19:55:33.837Z,92288.44
2023-05-09T19:58:06.154Z,92297.56
2023-05-09T20:00:38.436Z,92298.34
2023-05-09T20:03:11.018Z,92291.81
2023-05-09T20:05:44.408Z,92288.03
2023-05-09T20:08:16.697Z,92296.91
2023-05-09T20:10:49.607Z,92292.50
2023-05-09T20:13:22.057Z,92294.03
2023-05-09T20:15:54.530Z,92290.47
2023-05-09T20:18:27.036Z,92294.41
2023-05-09T20:20:59.335Z,92295.91
2023-05-09T20:23:31.614Z,92291.06
2023-05-09T20:26:04.645Z,92291.63
2023-05-09T20:28:37.493Z,92290.56
2023-05-09T20:31:10.064Z,92289.72
2023-05-09T20:33:42.446Z,92289.94
2023-05-09T20:36:14.946Z,92287.81
2023-05-09T20:38:47.261Z,92284.22
2023-05-09T20:41:21.137Z,92281.91
2023-05-09T20:43:53.556Z,92283.13
2023-05-09T20:46:25.909Z,92279.47
2023-05-09T20:48:58.195Z,92286.78
2023-05-09T20:51:31.097Z,92281.94
2023-05-09T20:54:03.580Z,92284.38
2023-05-09T20:56:36.557Z,92272.88
2023-05-09T20:59:08.878Z,92274.47
2023-05-09T21:01:41.244Z,92273.28
2023-05-09T21:04:15.076Z,92281.28
2023-05-09T21:06:47.492Z,92270.41
2023-05-09T21:09:19.801Z,92274.03
2023-05-09T21:11:52.809Z,92254.00
2023-05-09T21:14:25.090Z,92273.09
2023-05-09T21:16:57.635Z,92274.00
2023-05-09T21:19:29.877Z,92270.94
2023-05-09T21:22:02.669Z,92274.59
2023-05-09T21:24:35.009Z,92279.34
2023-05-09T21:27:07.933Z,92274.34
2023-05-09T21:29:40.238Z,92273.53
2023-05-09T21:32:12.554Z,92270.16
2023-05-09T21:34:47.529Z,92264.19
2023-05-09T21:37:20.030Z,92272.25
2023-05-09T21:39:52.306Z,92257.50
2023-05-09T21:42:25.321Z,92265.44
2023-05-09T21:44:57.609Z,92267.06
2023-05-09T21:47:30.088Z,92263.19
2023-05-09T21:50:03.449Z,92263.66
2023-05-09T21:52:35.824Z,92261.84
2023-05-09T21:55:08.895Z,92261.84
2023-05-09T21:57:41.863Z,92246.94
2023-05-09T22:00:16.060Z,92257.28
2023-05-09T22:02:49.878Z,92250.75
2023-05-09T22:05:23.011Z,92249.47
2023-05-09T22:07:55.355Z,92244.91
2023-05-09T22:10:28.034Z,92251.38
2023-05-09T22:13:01.529Z,92250.47
2023-05-09T22:15:33.836Z,92244.53
2023-05-09T22:18:06.364Z,92247.50
2023-05-09T22:20:38.697Z,92249.59
2023-05-09T22:23:11.006Z,92242.59
2023-05-09T22:25:43.362Z,92244.63
2023-05-09T22:28:16.364Z,92252.66
2023-05-09T22:30:48.666Z,92241.19
2023-05-09T22:33:21.243Z,92241.19
2023-05-09T22:35:53.533Z,92240.13
2023-05-09T22:38:25.955Z,92244.22
2023-05-09T22:40:58.280Z,92233.25
2023-05-09T22:43:38.789Z,92232.66
2023-05-09T22:46:12.129Z,92234.50
2023-05-09T22:48:44.536Z,92228.72
2023-05-09T22:51:16.852Z,92230.06
2023-05-09T22:53:49.160Z,92224.59
2023-05-09T22:56:21.820Z,92232.66
2023-05-09T22:58:54.946Z,92223.94
2023-05-09T23:01:27.383Z,92224.09
2023-05-09T23:03:59.860Z,92228.25
2023-05-09T23:06:32.702Z,92229.44
2023-05-09T23:13:42.768Z,92227.25
2023-05-09T23:16:15.937Z,92220.03
2023-05-09T23:18:48.317Z,92216.63
2023-05-09T23:21:20.652Z,92212.97
2023-05-09T23:23:52.945Z,92225.50
2023-05-09T23:26:25.337Z,92215.78
2023-05-09T23:28:57.660Z,92218.53
2023-05-09T23:31:30.656Z,92216.34
2023-05-09T23:34:03.050Z,92220.25
2023-05-09T23:36:35.367Z,92211.53
2023-05-09T23:39:07.733Z,92201.94
2023-05-09T23:41:40.037Z,92202.00
2023-05-09T23:44:12.498Z,92204.44
2023-05-09T23:46:45.604Z,92201.34
2023-05-09T23:49:18.006Z,92202.41
2023-05-09T23:51:50.306Z,92195.63
2023-05-09T23:54:23.674Z,92195.16
2023-05-09T23:56:56.664Z,92191.28
2023-05-09T23:59:28.940Z,92190.81
